METAR UND TAF INFORMATION
ZLXN 250400Z 31003MPS 5000 BR NSC M04/M11 Q1022 NOSIG

 FLUGHAFENKARTE

 RUNWAY INFORMATION

 AIRPORT FREQUENCIES

 AIRPORT NEAR NAVIGATION AIDS